Terminal Aerodrome Forecast
Issued by NWS Jackson, MS

Home | Current Version | Previous Version | Text Only | Print | Product List | Glossary On
Versions: 1 2 3 4 5 6 7 8 9 10 11 12 13 14 15
130
FTUS44 KJAN 030536
TAFGLH
TAF
KGLH 030536Z 0306/0406 07004KT P6SM SCT050 OVC130
     FM031600 07010KT P6SM -RA OVC050
     FM031900 07012G21KT 4SM -RA BR OVC015=

USA.gov is the U.S. government's official web portal to all federal, state and local government web resources and services.